Time;durP1;ratioP1;P1;durP2;ratioP2;P2;SDS_P1;SDS_P2;PMS_P1;PMS_P2;Temp;Humidity;BMP_temperature;BMP_pressure;BME280_temperature;BME280_humidity;BME280_pressure;Samples;Min_cycle;Max_cycle;Signal;HPM_P1;HPM_P2
2020/12/22 00:01:18;;;;;;;97.10;59.28;;;;;;;;;;10362142;28;20052;-64
2020/12/22 00:06:22;;;;;;;130.15;81.15;;;;;;;;;;10362037;28;20462;-63
2020/12/22 00:11:20;;;;;;;133.43;84.97;;;;;;;;;;10362071;28;20055;-64
2020/12/22 00:16:18;;;;;;;104.60;65.60;;;;;;;;;;10361182;28;20059;-64
2020/12/22 00:21:18;;;;;;;84.22;56.47;;;;;;;;;;10360403;28;20048;-63
2020/12/22 00:26:17;;;;;;;70.38;47.75;;;;;;;;;;10361223;28;20087;-63
2020/12/22 00:31:15;;;;;;;78.55;51.53;;;;;;;;;;10361071;28;20036;-63
2020/12/22 00:36:13;;;;;;;71.35;49.03;;;;;;;;;;10361115;28;20079;-61
2020/12/22 00:41:12;;;;;;;64.18;42.33;;;;;;;;;;10360595;28;20044;-62
2020/12/22 00:46:09;;;;;;;68.65;46.00;;;;;;;;;;10359911;28;20084;-63
2020/12/22 00:51:13;;;;;;;88.15;53.40;;;;;;;;;;10359609;28;20089;-63
2020/12/22 00:56:11;;;;;;;73.00;45.10;;;;;;;;;;10360237;28;20106;-61
2020/12/22 01:01:12;;;;;;;68.72;44.55;;;;;;;;;;10357977;28;20062;-63
2020/12/22 01:06:10;;;;;;;61.75;40.20;;;;;;;;;;10359537;28;20083;-62
2020/12/22 01:11:08;;;;;;;53.38;36.40;;;;;;;;;;10359784;28;20067;-62
2020/12/22 01:16:05;;;;;;;45.80;33.78;;;;;;;;;;10358896;28;20084;-63
2020/12/22 01:21:18;;;;;;;51.10;32.72;;;;;;;;;;10358170;28;20039;-62
2020/12/22 01:26:19;;;;;;;55.05;40.28;;;;;;;;;;10359321;28;20181;-62
2020/12/22 01:31:23;;;;;;;53.53;39.45;;;;;;;;;;10358914;28;20040;-63
2020/12/22 01:36:21;;;;;;;47.35;34.05;;;;;;;;;;10358521;28;20516;-63
2020/12/22 01:41:18;;;;;;;50.78;35.10;;;;;;;;;;10358491;28;20075;-64
2020/12/22 01:46:16;;;;;;;68.30;50.63;;;;;;;;;;10358446;28;20129;-63
2020/12/22 01:51:31;;;;;;;64.75;46.30;;;;;;;;;;10357522;28;20480;-63
2020/12/22 01:56:29;;;;;;;68.25;50.38;;;;;;;;;;10358124;28;20040;-63
2020/12/22 02:01:28;;;;;;;41.60;28.02;;;;;;;;;;10357912;28;20040;-63
2020/12/22 02:06:25;;;;;;;46.70;31.60;;;;;;;;;;10358018;28;20079;-63
2020/12/22 02:11:25;;;;;;;47.55;33.72;;;;;;;;;;10357886;28;20047;-64
2020/12/22 02:16:22;;;;;;;62.33;42.08;;;;;;;;;;10357351;28;20536;-63
2020/12/22 02:21:20;;;;;;;47.85;33.35;;;;;;;;;;10355519;28;20485;-63
2020/12/22 02:26:18;;;;;;;49.97;34.60;;;;;;;;;;10357539;28;20087;-62
2020/12/22 02:31:15;;;;;;;50.53;34.65;;;;;;;;;;10358086;28;20055;-62
2020/12/22 02:36:14;;;;;;;42.53;29.30;;;;;;;;;;10357381;28;20071;-62
2020/12/22 02:41:12;;;;;;;38.05;27.30;;;;;;;;;;10356137;28;20084;-63
2020/12/22 02:46:09;;;;;;;36.85;26.30;;;;;;;;;;10357044;28;20079;-63
2020/12/22 02:51:07;;;;;;;46.33;30.27;;;;;;;;;;10356880;28;20524;-63
2020/12/22 02:56:04;;;;;;;43.95;30.48;;;;;;;;;;10355933;28;20081;-63
2020/12/22 03:01:02;;;;;;;47.15;30.50;;;;;;;;;;10356859;28;20051;-63
2020/12/22 03:06:00;;;;;;;52.15;32.00;;;;;;;;;;10356895;28;20086;-63
2020/12/22 03:10:57;;;;;;;49.00;31.10;;;;;;;;;;10357646;28;20044;-64
2020/12/22 03:15:55;;;;;;;43.33;29.92;;;;;;;;;;10363530;28;20082;-63
2020/12/22 03:20:53;;;;;;;37.00;28.15;;;;;;;;;;10364161;28;20526;-61
2020/12/22 03:25:50;;;;;;;43.67;29.83;;;;;;;;;;10363522;28;20103;-62
2020/12/22 03:30:48;;;;;;;38.47;28.20;;;;;;;;;;10361961;28;20080;-63
2020/12/22 03:35:45;;;;;;;45.50;30.92;;;;;;;;;;10362517;28;20040;-64
2020/12/22 03:40:43;;;;;;;39.25;27.85;;;;;;;;;;10363005;28;20056;-62
2020/12/22 03:45:42;;;;;;;42.55;30.17;;;;;;;;;;10361809;28;20086;-62
2020/12/22 03:50:39;;;;;;;51.67;35.20;;;;;;;;;;10362882;28;20048;-62
2020/12/22 03:55:37;;;;;;;55.65;38.67;;;;;;;;;;10362112;28;20051;-61
2020/12/22 04:00:35;;;;;;;47.05;31.15;;;;;;;;;;10358795;28;20530;-62
2020/12/22 04:05:32;;;;;;;43.97;28.25;;;;;;;;;;10361799;28;20090;-62
2020/12/22 04:10:29;;;;;;;54.13;40.38;;;;;;;;;;10361741;28;20044;-62
2020/12/22 04:15:27;;;;;;;64.97;52.05;;;;;;;;;;10360662;28;20083;-61
2020/12/22 04:20:25;;;;;;;66.50;56.25;;;;;;;;;;10359144;28;20040;-62
2020/12/22 04:25:22;;;;;;;53.30;42.78;;;;;;;;;;10361035;28;20076;-62
2020/12/22 04:30:19;;;;;;;43.40;31.50;;;;;;;;;;10360710;28;20083;-64
2020/12/22 04:35:17;;;;;;;65.60;45.17;;;;;;;;;;10360975;28;20436;-64
2020/12/22 04:40:16;;;;;;;44.35;30.55;;;;;;;;;;10358012;28;20084;-63
2020/12/22 04:45:14;;;;;;;56.45;36.67;;;;;;;;;;10360129;28;20090;-64
2020/12/22 04:50:14;;;;;;;165.93;82.82;;;;;;;;;;10359462;28;20472;-63
2020/12/22 04:55:13;;;;;;;50.85;33.72;;;;;;;;;;10360084;28;20076;-62
2020/12/22 05:00:11;;;;;;;56.75;38.67;;;;;;;;;;10359987;28;20101;-63
2020/12/22 05:05:09;;;;;;;90.72;57.55;;;;;;;;;;10358740;28;20078;-62
2020/12/22 05:10:07;;;;;;;74.25;47.80;;;;;;;;;;10358599;28;20047;-62
2020/12/22 05:15:05;;;;;;;67.07;43.88;;;;;;;;;;10359171;28;20075;-63
2020/12/22 05:20:03;;;;;;;68.53;43.67;;;;;;;;;;10358222;28;20051;-64
2020/12/22 05:25:01;;;;;;;73.53;49.72;;;;;;;;;;10358804;28;20080;-63
2020/12/22 05:29:59;;;;;;;63.33;42.97;;;;;;;;;;10358475;28;20493;-63
2020/12/22 05:34:56;;;;;;;60.97;41.38;;;;;;;;;;10358176;28;20040;-62
2020/12/22 05:39:55;;;;;;;66.82;40.97;;;;;;;;;;10358523;28;20071;-62
2020/12/22 05:44:52;;;;;;;60.80;39.90;;;;;;;;;;10358765;28;20079;-62
2020/12/22 05:49:53;;;;;;;59.35;39.65;;;;;;;;;;10357732;28;20044;-63
2020/12/22 05:54:51;;;;;;;108.43;68.97;;;;;;;;;;10356612;28;20040;-63
2020/12/22 05:59:49;;;;;;;56.60;40.92;;;;;;;;;;10358192;28;20493;-63
2020/12/22 06:04:47;;;;;;;57.30;38.75;;;;;;;;;;10358051;28;20425;-63
2020/12/22 06:09:44;;;;;;;61.85;40.25;;;;;;;;;;10358088;28;20059;-63
2020/12/22 06:14:43;;;;;;;70.80;48.20;;;;;;;;;;10357135;28;20493;-63
2020/12/22 06:19:42;;;;;;;55.22;38.55;;;;;;;;;;10357295;28;20050;-63
2020/12/22 06:24:40;;;;;;;58.53;37.97;;;;;;;;;;10357116;28;20044;-63
2020/12/22 06:29:41;;;;;;;64.75;42.08;;;;;;;;;;10352800;28;20587;-63
2020/12/22 06:34:38;;;;;;;66.57;43.58;;;;;;;;;;10353110;28;20067;-63
2020/12/22 06:39:43;;;;;;;78.82;50.85;;;;;;;;;;10353564;28;20421;-63
2020/12/22 06:44:41;;;;;;;67.07;48.47;;;;;;;;;;10353303;28;20472;-64
2020/12/22 06:49:51;;;;;;;84.10;55.17;;;;;;;;;;10362488;28;20076;-63
2020/12/22 06:54:51;;;;;;;74.40;46.00;;;;;;;;;;10363113;28;20083;-63
2020/12/22 06:59:49;;;;;;;131.48;78.57;;;;;;;;;;10360229;28;20166;-63
2020/12/22 07:04:46;;;;;;;65.15;43.22;;;;;;;;;;10360802;28;20091;-63
2020/12/22 07:09:44;;;;;;;62.65;44.40;;;;;;;;;;10361899;28;20088;-63
2020/12/22 07:14:46;;;;;;;66.10;41.65;;;;;;;;;;10363582;28;20052;-63
2020/12/22 07:19:45;;;;;;;50.72;33.88;;;;;;;;;;10363000;28;20056;-63
2020/12/22 07:24:43;;;;;;;61.88;42.40;;;;;;;;;;10363823;28;20044;-63
2020/12/22 07:29:42;;;;;;;61.20;43.20;;;;;;;;;;10363606;28;20448;-63
2020/12/22 07:34:40;;;;;;;67.40;45.63;;;;;;;;;;10363636;28;20079;-63
2020/12/22 07:39:38;;;;;;;78.55;52.50;;;;;;;;;;10362902;28;20687;-63
2020/12/22 07:44:37;;;;;;;77.60;56.90;;;;;;;;;;10362748;28;20044;-61
2020/12/22 07:49:35;;;;;;;142.00;102.35;;;;;;;;;;10362538;28;20072;-62
2020/12/22 07:54:33;;;;;;;74.65;50.83;;;;;;;;;;10361190;28;20050;-63
2020/12/22 07:59:30;;;;;;;92.13;65.00;;;;;;;;;;10361909;28;20550;-62
2020/12/22 08:04:28;;;;;;;69.57;42.92;;;;;;;;;;10362136;28;20059;-62
2020/12/22 08:09:27;;;;;;;71.53;51.28;;;;;;;;;;10361760;28;20113;-62
2020/12/22 08:14:25;;;;;;;71.00;48.13;;;;;;;;;;10361037;28;20052;-62
2020/12/22 08:19:22;;;;;;;92.35;58.63;;;;;;;;;;10361154;28;20417;-62
2020/12/22 08:24:20;;;;;;;62.08;40.75;;;;;;;;;;10361075;28;20072;-62
2020/12/22 08:29:18;;;;;;;61.00;40.83;;;;;;;;;;10360986;28;20071;-62
2020/12/22 08:34:17;;;;;;;69.35;45.17;;;;;;;;;;10361005;28;20752;-62
2020/12/22 08:39:15;;;;;;;70.85;45.22;;;;;;;;;;10360882;28;20278;-61
2020/12/22 08:44:13;;;;;;;70.65;44.10;;;;;;;;;;10360466;28;20290;-62
2020/12/22 08:49:12;;;;;;;70.25;41.33;;;;;;;;;;10360329;28;20082;-61
2020/12/22 08:54:09;;;;;;;107.35;74.05;;;;;;;;;;10360061;28;20405;-62
2020/12/22 08:59:07;;;;;;;59.25;38.83;;;;;;;;;;10359859;28;20452;-63
2020/12/22 09:04:04;;;;;;;62.72;42.45;;;;;;;;;;10359842;28;20040;-62
2020/12/22 09:09:03;;;;;;;62.25;36.72;;;;;;;;;;10358518;28;20119;-62
2020/12/22 09:14:01;;;;;;;52.40;34.88;;;;;;;;;;10358607;28;20090;-61
2020/12/22 09:19:05;;;;;;;62.85;40.83;;;;;;;;;;10358843;28;20048;-62
2020/12/22 09:24:03;;;;;;;55.88;35.10;;;;;;;;;;10358506;28;20044;-63
2020/12/22 09:29:01;;;;;;;66.80;43.72;;;;;;;;;;10358517;28;20067;-62
2020/12/22 09:33:58;;;;;;;65.28;40.15;;;;;;;;;;10358743;28;20048;-63
2020/12/22 09:38:55;;;;;;;77.53;48.65;;;;;;;;;;10358421;28;20067;-62
2020/12/22 09:43:54;;;;;;;69.35;47.65;;;;;;;;;;10358293;28;20040;-63
2020/12/22 09:48:52;;;;;;;70.47;45.03;;;;;;;;;;10357954;28;20496;-63
2020/12/22 09:53:50;;;;;;;49.25;30.38;;;;;;;;;;10357959;28;20040;-63
2020/12/22 09:58:47;;;;;;;58.90;36.88;;;;;;;;;;10357837;28;20505;-63
2020/12/22 10:03:46;;;;;;;62.22;38.47;;;;;;;;;;10356242;28;20044;-61
2020/12/22 10:08:43;;;;;;;57.25;38.20;;;;;;;;;;10357581;28;20072;-61
2020/12/22 10:13:41;;;;;;;61.95;44.53;;;;;;;;;;10357212;28;20095;-61
2020/12/22 10:18:38;;;;;;;64.50;42.30;;;;;;;;;;10357013;28;20051;-61
2020/12/22 10:23:37;;;;;;;58.58;39.78;;;;;;;;;;10366182;28;20048;-63
2020/12/22 10:28:35;;;;;;;41.42;26.13;;;;;;;;;;10365500;28;20071;-61
2020/12/22 10:33:33;;;;;;;78.15;45.05;;;;;;;;;;10365183;28;20036;-62
2020/12/22 10:38:30;;;;;;;64.28;44.35;;;;;;;;;;10373922;28;20082;-61
2020/12/22 10:43:29;;;;;;;55.10;35.72;;;;;;;;;;10374383;27;20090;-62
2020/12/22 10:48:26;;;;;;;49.67;31.58;;;;;;;;;;10365808;28;20059;-62
2020/12/22 10:53:25;;;;;;;52.90;34.72;;;;;;;;;;10396657;28;20059;-62
2020/12/22 10:58:22;;;;;;;55.70;39.97;;;;;;;;;;10364302;28;20040;-62
2020/12/22 11:03:38;;;;;;;61.42;38.92;;;;;;;;;;10397519;28;20595;-62
2020/12/22 11:08:54;;;;;;;49.85;34.15;;;;;;;;;;10400429;27;20496;-62
2020/12/22 11:13:51;;;;;;;58.28;37.55;;;;;;;;;;10389213;27;20514;-62
2020/12/22 11:18:49;;;;;;;151.27;114.65;;;;;;;;;;10368184;28;20056;-61
2020/12/22 11:23:47;;;;;;;68.80;42.63;;;;;;;;;;10364009;28;20071;-61
2020/12/22 11:28:45;;;;;;;70.88;52.65;;;;;;;;;;10363905;27;20076;-61
2020/12/22 11:33:43;;;;;;;91.18;56.10;;;;;;;;;;10362337;28;20062;-61
2020/12/22 11:38:57;;;;;;;67.22;47.33;;;;;;;;;;10375463;28;20547;-62
2020/12/22 11:44:13;;;;;;;74.63;54.88;;;;;;;;;;10420293;27;20082;-62
2020/12/22 11:50:09;;;;;;;62.25;43.28;;;;;;;;;;10371484;28;20521;-61
2020/12/22 11:55:32;;;;;;;53.33;35.55;;;;;;;;;;10302155;28;20470;-63
2020/12/22 12:01:10;;;;;;;76.85;48.85;;;;;;;;;;10353302;28;20599;-63
2020/12/22 12:06:33;;;;;;;46.08;31.77;;;;;;;;;;10351985;28;20091;-63
2020/12/22 12:11:58;;;;;;;;;;;;;;;;;;;;;
2020/12/22 12:17:04;;;;;;;42.25;26.75;;;;;;;;;;10357256;28;20750;-61
2020/12/22 12:22:05;;;;;;;41.70;28.70;;;;;;;;;;10379405;28;20055;-62
2020/12/22 12:27:03;;;;;;;46.15;31.83;;;;;;;;;;10401953;28;20056;-62
2020/12/22 12:32:02;;;;;;;49.88;32.58;;;;;;;;;;10401872;28;20055;-62
2020/12/22 12:36:59;;;;;;;72.97;47.85;;;;;;;;;;10401103;28;20090;-63
2020/12/22 12:41:57;;;;;;;51.63;33.83;;;;;;;;;;10409605;27;20093;-60
2020/12/22 12:46:56;;;;;;;50.45;32.67;;;;;;;;;;10418508;27;20408;-62
2020/12/22 12:51:53;;;;;;;51.08;35.47;;;;;;;;;;10420628;27;20069;-61
2020/12/22 12:56:50;;;;;;;91.65;60.10;;;;;;;;;;10396633;28;20072;-62
2020/12/22 13:01:48;;;;;;;91.40;61.00;;;;;;;;;;10378146;28;20543;-62
2020/12/22 13:06:46;;;;;;;79.45;51.63;;;;;;;;;;10399315;28;20054;-62
2020/12/22 13:11:46;;;;;;;58.03;36.35;;;;;;;;;;10399346;28;20050;-62
2020/12/22 13:16:43;;;;;;;57.45;36.13;;;;;;;;;;10424280;27;20082;-61
2020/12/22 13:21:41;;;;;;;52.90;35.22;;;;;;;;;;10426449;27;20563;-61
2020/12/22 13:26:42;;;;;;;66.38;44.33;;;;;;;;;;10398581;28;20036;-63
2020/12/22 13:31:44;;;;;;;67.45;44.95;;;;;;;;;;10399346;28;20506;-62
2020/12/22 13:36:42;;;;;;;70.70;43.55;;;;;;;;;;10398549;28;20086;-61
2020/12/22 13:42:00;;;;;;;57.92;37.55;;;;;;;;;;10426176;27;20067;-62
2020/12/22 13:47:02;;;;;;;58.95;39.47;;;;;;;;;;10430697;27;20102;-60
2020/12/22 13:52:00;;;;;;;61.05;39.30;;;;;;;;;;10437037;27;20054;-61
2020/12/22 13:56:57;;;;;;;77.50;49.33;;;;;;;;;;10439034;27;20602;-62
2020/12/22 14:01:55;;;;;;;124.70;76.70;;;;;;;;;;10439865;27;20039;-61
2020/12/22 14:06:54;;;;;;;70.35;45.63;;;;;;;;;;10419504;27;20051;-62
2020/12/22 14:11:52;;;;;;;132.77;80.82;;;;;;;;;;10444503;27;20078;-62
2020/12/22 14:16:52;;;;;;;96.75;64.75;;;;;;;;;;10439384;28;20526;-61
2020/12/22 14:21:51;;;;;;;177.48;112.40;;;;;;;;;;10438904;28;20044;-62
2020/12/22 14:26:49;;;;;;;67.97;47.47;;;;;;;;;;10439180;28;20086;-62
2020/12/22 14:31:46;;;;;;;103.40;62.80;;;;;;;;;;10438069;28;20039;-61
2020/12/22 14:42:26;;;;;;;81.15;48.70;;;;;;;;;;10437673;27;20076;-61
2020/12/22 14:47:24;;;;;;;103.57;62.58;;;;;;;;;;10406768;28;20044;-62
2020/12/22 14:52:21;;;;;;;80.68;54.20;;;;;;;;;;10396829;28;20512;-63
2020/12/22 14:57:18;;;;;;;78.35;51.22;;;;;;;;;;10397507;28;20075;-62
2020/12/22 15:02:17;;;;;;;82.78;51.90;;;;;;;;;;10397799;28;20063;-62
2020/12/22 15:07:15;;;;;;;127.20;78.47;;;;;;;;;;10399985;28;20044;-62
2020/12/22 15:12:12;;;;;;;140.98;87.88;;;;;;;;;;10406474;27;20066;-62
2020/12/22 15:17:10;;;;;;;80.50;49.67;;;;;;;;;;10413877;27;20075;-62
2020/12/22 15:22:18;;;;;;;118.43;68.63;;;;;;;;;;10403567;28;20055;-63
2020/12/22 15:27:15;;;;;;;331.70;208.15;;;;;;;;;;10404298;28;20086;-63
2020/12/22 15:32:13;;;;;;;281.60;186.18;;;;;;;;;;10416030;27;20104;-61
2020/12/22 15:37:13;;;;;;;171.30;117.63;;;;;;;;;;10415139;27;20460;-63
2020/12/22 15:42:16;;;;;;;244.32;155.25;;;;;;;;;;10419025;27;20101;-64
2020/12/22 15:47:17;;;;;;;135.90;88.22;;;;;;;;;;10422261;27;20043;-63
2020/12/22 15:52:15;;;;;;;242.57;138.38;;;;;;;;;;10443134;27;20039;-63
2020/12/22 15:57:12;;;;;;;210.35;126.95;;;;;;;;;;10444140;27;20086;-63
2020/12/22 16:02:13;;;;;;;195.93;116.93;;;;;;;;;;10437395;27;20070;-62
2020/12/22 16:07:12;;;;;;;228.40;141.85;;;;;;;;;;10412943;27;20075;-62
2020/12/22 16:12:11;;;;;;;105.28;67.68;;;;;;;;;;10424805;27;20063;-63
2020/12/22 16:17:17;;;;;;;94.45;59.97;;;;;;;;;;10423018;27;20468;-63
2020/12/22 16:22:15;;;;;;;103.55;61.08;;;;;;;;;;10402094;28;20508;-64
2020/12/22 16:27:13;;;;;;;112.15;63.42;;;;;;;;;;10407661;27;20071;-64
2020/12/22 16:32:17;;;;;;;220.32;130.73;;;;;;;;;;10428005;27;20071;-64
2020/12/22 16:37:21;;;;;;;162.17;110.90;;;;;;;;;;10417215;27;20078;-64
2020/12/22 16:42:31;;;;;;;127.57;80.43;;;;;;;;;;10382930;28;20055;-64
2020/12/22 16:47:46;;;;;;;101.18;73.90;;;;;;;;;;10371739;28;20055;-63
2020/12/22 16:52:53;;;;;;;82.93;55.53;;;;;;;;;;10401328;28;20070;-63
2020/12/22 16:57:55;;;;;;;103.75;64.00;;;;;;;;;;10400472;28;20083;-63
2020/12/22 17:02:53;;;;;;;96.50;59.70;;;;;;;;;;10400081;28;20043;-63
2020/12/22 17:07:51;;;;;;;84.30;61.13;;;;;;;;;;10400666;28;20039;-63
2020/12/22 17:12:50;;;;;;;90.07;58.13;;;;;;;;;;10399861;28;20051;-63
2020/12/22 17:17:47;;;;;;;80.95;49.67;;;;;;;;;;10399783;28;20086;-63
2020/12/22 17:22:45;;;;;;;73.22;48.38;;;;;;;;;;10400137;28;20110;-62
2020/12/22 17:27:43;;;;;;;112.53;82.00;;;;;;;;;;10380875;28;20044;-64
2020/12/22 17:32:41;;;;;;;103.03;68.97;;;;;;;;;;10398925;28;20416;-64
2020/12/22 17:37:39;;;;;;;130.15;80.78;;;;;;;;;;10399043;28;20071;-64
2020/12/22 17:42:37;;;;;;;120.68;71.65;;;;;;;;;;10399309;28;20090;-63
2020/12/22 17:47:34;;;;;;;86.07;54.47;;;;;;;;;;10398527;28;20051;-63
2020/12/22 17:52:32;;;;;;;139.32;90.90;;;;;;;;;;10398050;28;20071;-63
2020/12/22 17:57:29;;;;;;;133.52;84.80;;;;;;;;;;10398693;28;20082;-63
2020/12/22 18:02:31;;;;;;;112.80;74.60;;;;;;;;;;10398597;28;20082;-63
2020/12/22 18:07:31;;;;;;;103.80;59.75;;;;;;;;;;10398241;28;20424;-63
2020/12/22 18:12:29;;;;;;;99.45;61.60;;;;;;;;;;10398398;28;20048;-62
2020/12/22 18:17:26;;;;;;;90.45;61.47;;;;;;;;;;10398137;28;20086;-62
2020/12/22 18:22:24;;;;;;;88.28;56.45;;;;;;;;;;10398033;28;20062;-63
2020/12/22 18:27:23;;;;;;;101.93;66.00;;;;;;;;;;10398079;28;20036;-63
2020/12/22 18:32:21;;;;;;;110.40;68.60;;;;;;;;;;10397821;28;20039;-63
2020/12/22 18:37:18;;;;;;;101.43;61.45;;;;;;;;;;10396603;28;20083;-63
2020/12/22 18:42:17;;;;;;;110.68;63.72;;;;;;;;;;10398877;28;20082;-62
2020/12/22 18:47:16;;;;;;;98.75;61.95;;;;;;;;;;10380417;27;20453;-63
2020/12/22 18:52:13;;;;;;;107.60;63.45;;;;;;;;;;10386431;28;20059;-62
2020/12/22 18:57:11;;;;;;;121.30;73.05;;;;;;;;;;10378927;27;20063;-62
2020/12/22 19:02:30;;;;;;;100.75;63.40;;;;;;;;;;10378650;28;20040;-63
2020/12/22 19:07:27;;;;;;;89.60;57.13;;;;;;;;;;10373168;27;20067;-63
2020/12/22 19:12:25;;;;;;;85.72;55.85;;;;;;;;;;10378400;28;20079;-61
2020/12/22 19:17:22;;;;;;;102.20;66.65;;;;;;;;;;10381168;28;20090;-62
2020/12/22 19:22:21;;;;;;;104.80;66.80;;;;;;;;;;10377924;28;20505;-61
2020/12/22 19:27:19;;;;;;;98.22;59.67;;;;;;;;;;10381175;28;20083;-61
2020/12/22 19:32:16;;;;;;;89.97;55.55;;;;;;;;;;10363504;28;20047;-61
2020/12/22 19:37:14;;;;;;;104.32;64.90;;;;;;;;;;10365523;28;20084;-62
2020/12/22 19:42:12;;;;;;;148.85;88.45;;;;;;;;;;10386531;28;20470;-62
2020/12/22 19:47:11;;;;;;;153.48;101.80;;;;;;;;;;10402750;28;20067;-63
2020/12/22 19:52:09;;;;;;;90.05;61.97;;;;;;;;;;10401961;28;20433;-62
2020/12/22 19:57:06;;;;;;;83.15;52.50;;;;;;;;;;10403043;28;20039;-63
2020/12/22 20:02:04;;;;;;;125.63;82.18;;;;;;;;;;10402954;28;20054;-62
2020/12/22 20:07:02;;;;;;;129.32;82.22;;;;;;;;;;10402700;28;20048;-62
2020/12/22 20:11:59;;;;;;;105.32;66.72;;;;;;;;;;10402581;28;20079;-62
2020/12/22 20:16:57;;;;;;;89.30;57.38;;;;;;;;;;10402087;28;20039;-62
2020/12/22 20:21:56;;;;;;;93.70;59.53;;;;;;;;;;10401674;28;20503;-62
2020/12/22 20:26:54;;;;;;;199.35;143.77;;;;;;;;;;10402159;28;20047;-64
2020/12/22 20:31:51;;;;;;;91.05;49.45;;;;;;;;;;10401514;28;20043;-63
2020/12/22 20:36:48;;;;;;;75.13;49.40;;;;;;;;;;10401527;28;20048;-63
2020/12/22 20:41:47;;;;;;;105.93;66.88;;;;;;;;;;10401384;28;20071;-63
2020/12/22 20:46:44;;;;;;;96.57;58.30;;;;;;;;;;10401572;28;20055;-63
2020/12/22 20:51:41;;;;;;;91.40;57.53;;;;;;;;;;10399556;28;20063;-62
2020/12/22 20:56:38;;;;;;;118.18;70.30;;;;;;;;;;10400784;28;20054;-63
2020/12/22 21:01:37;;;;;;;128.07;72.85;;;;;;;;;;10394865;28;20512;-63
2020/12/22 21:06:36;;;;;;;79.00;49.75;;;;;;;;;;10398647;28;20063;-63
2020/12/22 21:11:34;;;;;;;85.20;50.95;;;;;;;;;;10399687;27;20067;-65
2020/12/22 21:16:31;;;;;;;151.98;105.35;;;;;;;;;;10425547;27;20043;-63
2020/12/22 21:21:30;;;;;;;85.38;55.42;;;;;;;;;;10418158;27;20086;-63
2020/12/22 21:26:28;;;;;;;114.15;71.45;;;;;;;;;;10411594;27;20455;-62
2020/12/22 21:31:25;;;;;;;126.65;77.45;;;;;;;;;;10399117;28;20052;-63
2020/12/22 21:36:23;;;;;;;83.05;51.60;;;;;;;;;;10398771;28;20084;-64
2020/12/22 21:41:21;;;;;;;93.80;60.95;;;;;;;;;;10399064;28;20075;-64
2020/12/22 21:46:21;;;;;;;62.80;39.78;;;;;;;;;;10398880;28;20058;-63
2020/12/22 21:51:19;;;;;;;94.47;61.05;;;;;;;;;;10399254;28;20048;-63
2020/12/22 21:56:18;;;;;;;72.70;44.40;;;;;;;;;;10399038;28;20071;-63
2020/12/22 22:01:17;;;;;;;62.78;38.95;;;;;;;;;;10398559;28;20079;-62
2020/12/22 22:06:24;;;;;;;81.32;47.88;;;;;;;;;;10398441;28;20043;-62
2020/12/22 22:11:22;;;;;;;71.25;44.97;;;;;;;;;;10398499;28;20040;-63
2020/12/22 22:16:21;;;;;;;46.25;30.50;;;;;;;;;;10398012;28;20078;-66
2020/12/22 22:21:18;;;;;;;50.10;34.63;;;;;;;;;;10397775;28;20083;-64
2020/12/22 22:26:16;;;;;;;60.92;37.72;;;;;;;;;;10398151;28;20051;-62
2020/12/22 22:31:19;;;;;;;76.07;51.00;;;;;;;;;;10397906;28;20400;-63
2020/12/22 22:36:17;;;;;;;53.42;37.50;;;;;;;;;;10397414;28;20051;-63
2020/12/22 22:41:22;;;;;;;58.55;37.85;;;;;;;;;;10397733;28;20083;-63
2020/12/22 22:46:20;;;;;;;55.40;36.53;;;;;;;;;;10397278;28;20060;-62
2020/12/22 22:51:18;;;;;;;61.05;38.72;;;;;;;;;;10397654;28;20078;-62
2020/12/22 22:56:18;;;;;;;55.35;32.83;;;;;;;;;;10397488;28;20051;-63
2020/12/22 23:01:16;;;;;;;45.80;30.00;;;;;;;;;;10397263;28;20082;-64
2020/12/22 23:06:14;;;;;;;53.15;34.40;;;;;;;;;;10396976;28;20087;-63
2020/12/22 23:11:12;;;;;;;58.92;36.53;;;;;;;;;;10397261;28;20043;-64
2020/12/22 23:16:10;;;;;;;105.85;65.18;;;;;;;;;;10397258;28;20078;-65
2020/12/22 23:21:07;;;;;;;44.20;28.50;;;;;;;;;;10397006;28;20074;-63
2020/12/22 23:26:07;;;;;;;70.72;45.00;;;;;;;;;;10396472;28;20138;-63
2020/12/22 23:31:05;;;;;;;92.20;55.35;;;;;;;;;;10403407;28;20046;-62
2020/12/22 23:36:03;;;;;;;106.13;66.30;;;;;;;;;;10403096;28;20044;-62
2020/12/22 23:41:02;;;;;;;78.05;51.15;;;;;;;;;;10403809;28;20078;-63
2020/12/22 23:45:59;;;;;;;115.82;68.40;;;;;;;;;;10403634;28;20055;-63
2020/12/22 23:50:57;;;;;;;101.43;63.35;;;;;;;;;;10402905;28;20079;-64
2020/12/22 23:55:54;;;;;;;290.02;157.20;;;;;;;;;;10403372;28;20067;-64
